sensor_id;sensor_type;location;lat;lon;timestamp;pressure;altitude;pressure_sealevel;temperature;humidity
84145;BME280;74264;48.988;12.040;2024-03-22T00:01:47;98542.09;;;4.19;98.24
84145;BME280;74264;48.988;12.040;2024-03-22T00:04:14;98542.28;;;4.05;97.87
84145;BME280;74264;48.988;12.040;2024-03-22T00:06:44;98540.94;;;3.99;98.03
84145;BME280;74264;48.988;12.040;2024-03-22T00:09:10;98548.56;;;3.79;97.65
84145;BME280;74264;48.988;12.040;2024-03-22T00:11:36;98550.50;;;3.64;97.20
84145;BME280;74264;48.988;12.040;2024-03-22T00:14:02;98548.50;;;3.68;97.22
84145;BME280;74264;48.988;12.040;2024-03-22T00:16:28;98546.84;;;3.67;97.32
84145;BME280;74264;48.988;12.040;2024-03-22T00:18:54;98534.69;;;3.66;97.29
84145;BME280;74264;48.988;12.040;2024-03-22T00:21:21;98533.16;;;3.51;96.86
84145;BME280;74264;48.988;12.040;2024-03-22T00:23:47;98532.88;;;3.43;96.10
84145;BME280;74264;48.988;12.040;2024-03-22T00:26:13;98540.94;;;3.40;96.38
84145;BME280;74264;48.988;12.040;2024-03-22T00:28:39;98537.06;;;3.33;95.89
84145;BME280;74264;48.988;12.040;2024-03-22T00:31:05;98529.97;;;3.35;96.31
84145;BME280;74264;48.988;12.040;2024-03-22T00:33:30;98528.50;;;3.31;96.55
84145;BME280;74264;48.988;12.040;2024-03-22T00:35:57;98516.63;;;3.50;97.61
84145;BME280;74264;48.988;12.040;2024-03-22T00:38:23;98516.22;;;3.67;97.93
84145;BME280;74264;48.988;12.040;2024-03-22T00:40:48;98507.50;;;3.79;98.44
84145;BME280;74264;48.988;12.040;2024-03-22T00:43:14;98508.84;;;3.85;98.46
84145;BME280;74264;48.988;12.040;2024-03-22T00:45:39;98512.25;;;3.98;98.60
84145;BME280;74264;48.988;12.040;2024-03-22T00:48:05;98513.47;;;4.05;98.80
84145;BME280;74264;48.988;12.040;2024-03-22T00:50:31;98515.53;;;3.89;98.47
84145;BME280;74264;48.988;12.040;2024-03-22T00:52:56;98513.91;;;3.75;98.40
84145;BME280;74264;48.988;12.040;2024-03-22T00:55:23;98508.50;;;3.66;98.11
84145;BME280;74264;48.988;12.040;2024-03-22T00:57:48;98503.91;;;3.57;98.09
84145;BME280;74264;48.988;12.040;2024-03-22T01:00:15;98512.94;;;3.53;98.24
84145;BME280;74264;48.988;12.040;2024-03-22T01:02:41;98505.88;;;3.66;98.23
84145;BME280;74264;48.988;12.040;2024-03-22T01:05:07;98509.78;;;3.60;98.31
84145;BME280;74264;48.988;12.040;2024-03-22T01:07:33;98501.75;;;3.51;97.97
84145;BME280;74264;48.988;12.040;2024-03-22T01:09:58;98493.06;;;3.50;98.25
84145;BME280;74264;48.988;12.040;2024-03-22T01:12:25;98498.56;;;3.58;98.20
84145;BME280;74264;48.988;12.040;2024-03-22T01:14:50;98503.75;;;3.71;98.37
84145;BME280;74264;48.988;12.040;2024-03-22T01:17:16;98501.78;;;3.74;98.37
84145;BME280;74264;48.988;12.040;2024-03-22T01:19:42;98500.19;;;3.72;98.36
84145;BME280;74264;48.988;12.040;2024-03-22T01:22:07;98493.75;;;3.65;98.59
84145;BME280;74264;48.988;12.040;2024-03-22T01:24:33;98498.44;;;3.60;98.65
84145;BME280;74264;48.988;12.040;2024-03-22T01:26:58;98499.41;;;3.59;98.44
84145;BME280;74264;48.988;12.040;2024-03-22T01:29:24;98495.75;;;3.61;98.83
84145;BME280;74264;48.988;12.040;2024-03-22T01:31:50;98499.28;;;3.60;98.59
84145;BME280;74264;48.988;12.040;2024-03-22T01:34:15;98496.22;;;3.43;98.37
84145;BME280;74264;48.988;12.040;2024-03-22T01:36:41;98487.88;;;3.25;98.30
84145;BME280;74264;48.988;12.040;2024-03-22T01:39:07;98493.25;;;3.24;98.60
84145;BME280;74264;48.988;12.040;2024-03-22T01:41:32;98491.88;;;3.18;98.31
84145;BME280;74264;48.988;12.040;2024-03-22T01:43:58;98489.88;;;3.22;98.10
84145;BME280;74264;48.988;12.040;2024-03-22T01:46:24;98490.09;;;3.31;98.64
84145;BME280;74264;48.988;12.040;2024-03-22T01:48:50;98475.84;;;3.35;98.46
84145;BME280;74264;48.988;12.040;2024-03-22T01:51:17;98477.16;;;3.17;98.33
84145;BME280;74264;48.988;12.040;2024-03-22T01:53:43;98478.00;;;3.05;98.57
84145;BME280;74264;48.988;12.040;2024-03-22T01:56:10;98477.69;;;2.97;98.43
84145;BME280;74264;48.988;12.040;2024-03-22T01:58:35;98481.28;;;2.83;97.91
84145;BME280;74264;48.988;12.040;2024-03-22T02:01:01;98481.75;;;3.01;98.10
84145;BME280;74264;48.988;12.040;2024-03-22T02:03:27;98472.75;;;3.05;98.51
84145;BME280;74264;48.988;12.040;2024-03-22T02:05:53;98467.66;;;3.03;98.44
84145;BME280;74264;48.988;12.040;2024-03-22T02:08:19;98459.72;;;2.92;98.21
84145;BME280;74264;48.988;12.040;2024-03-22T02:10:45;98469.97;;;2.83;98.56
84145;BME280;74264;48.988;12.040;2024-03-22T02:13:10;98462.88;;;2.85;97.87
84145;BME280;74264;48.988;12.040;2024-03-22T02:15:36;98453.44;;;2.82;97.93
84145;BME280;74264;48.988;12.040;2024-03-22T02:18:02;98449.16;;;2.81;97.98
84145;BME280;74264;48.988;12.040;2024-03-22T02:20:27;98445.41;;;2.85;97.65
84145;BME280;74264;48.988;12.040;2024-03-22T02:22:53;98447.69;;;2.90;97.99
84145;BME280;74264;48.988;12.040;2024-03-22T02:25:18;98438.19;;;2.89;97.96
84145;BME280;74264;48.988;12.040;2024-03-22T02:27:44;98445.91;;;2.90;97.88
84145;BME280;74264;48.988;12.040;2024-03-22T02:30:10;98442.75;;;2.98;97.99
84145;BME280;74264;48.988;12.040;2024-03-22T02:32:35;98437.28;;;3.01;98.28
84145;BME280;74264;48.988;12.040;2024-03-22T02:35:02;98437.22;;;2.90;97.92
84145;BME280;74264;48.988;12.040;2024-03-22T02:37:28;98427.09;;;2.85;97.66
84145;BME280;74264;48.988;12.040;2024-03-22T02:39:54;98430.44;;;2.87;97.77
84145;BME280;74264;48.988;12.040;2024-03-22T02:42:19;98427.50;;;2.92;97.72
84145;BME280;74264;48.988;12.040;2024-03-22T02:44:45;98426.94;;;2.99;97.68
84145;BME280;74264;48.988;12.040;2024-03-22T02:47:10;98424.31;;;2.99;97.66
84145;BME280;74264;48.988;12.040;2024-03-22T02:49:38;98424.81;;;3.04;97.61
84145;BME280;74264;48.988;12.040;2024-03-22T02:52:03;98429.13;;;3.06;97.82
84145;BME280;74264;48.988;12.040;2024-03-22T02:54:29;98421.78;;;3.11;98.02
84145;BME280;74264;48.988;12.040;2024-03-22T02:56:54;98425.97;;;3.13;97.45
84145;BME280;74264;48.988;12.040;2024-03-22T02:59:20;98427.75;;;3.13;97.69
84145;BME280;74264;48.988;12.040;2024-03-22T03:01:46;98425.75;;;3.16;97.51
84145;BME280;74264;48.988;12.040;2024-03-22T03:04:11;98430.06;;;3.04;97.42
84145;BME280;74264;48.988;12.040;2024-03-22T03:06:37;98425.69;;;3.05;97.71
84145;BME280;74264;48.988;12.040;2024-03-22T03:09:02;98419.41;;;3.08;97.53
84145;BME280;74264;48.988;12.040;2024-03-22T03:11:30;98421.47;;;3.15;97.97
84145;BME280;74264;48.988;12.040;2024-03-22T03:13:56;98416.56;;;3.11;98.04
84145;BME280;74264;48.988;12.040;2024-03-22T03:16:22;98415.50;;;3.13;97.71
84145;BME280;74264;48.988;12.040;2024-03-22T03:18:47;98411.09;;;3.14;97.79
84145;BME280;74264;48.988;12.040;2024-03-22T03:21:13;98406.81;;;3.13;98.12
84145;BME280;74264;48.988;12.040;2024-03-22T03:23:39;98402.38;;;3.02;97.61
84145;BME280;74264;48.988;12.040;2024-03-22T03:26:04;98403.09;;;3.04;97.75
84145;BME280;74264;48.988;12.040;2024-03-22T03:28:30;98401.28;;;3.04;97.59
84145;BME280;74264;48.988;12.040;2024-03-22T03:30:56;98397.94;;;3.02;97.65
84145;BME280;74264;48.988;12.040;2024-03-22T03:33:21;98397.31;;;2.99;97.72
84145;BME280;74264;48.988;12.040;2024-03-22T03:35:47;98394.63;;;3.00;97.43
84145;BME280;74264;48.988;12.040;2024-03-22T03:38:13;98392.75;;;2.90;96.99
84145;BME280;74264;48.988;12.040;2024-03-22T03:40:38;98399.31;;;2.95;97.29
84145;BME280;74264;48.988;12.040;2024-03-22T03:43:04;98396.44;;;2.87;96.98
84145;BME280;74264;48.988;12.040;2024-03-22T03:45:29;98412.53;;;2.94;97.30
84145;BME280;74264;48.988;12.040;2024-03-22T03:47:55;98411.78;;;2.92;96.97
84145;BME280;74264;48.988;12.040;2024-03-22T03:50:21;98404.56;;;2.95;97.27
84145;BME280;74264;48.988;12.040;2024-03-22T03:52:46;98405.97;;;2.76;97.37
84145;BME280;74264;48.988;12.040;2024-03-22T03:55:12;98407.88;;;2.74;96.39
84145;BME280;74264;48.988;12.040;2024-03-22T03:57:37;98403.25;;;2.77;96.41
84145;BME280;74264;48.988;12.040;2024-03-22T04:00:03;98398.63;;;2.81;96.48
84145;BME280;74264;48.988;12.040;2024-03-22T04:02:31;98396.13;;;2.79;96.83
84145;BME280;74264;48.988;12.040;2024-03-22T04:04:57;98395.97;;;2.93;97.13
84145;BME280;74264;48.988;12.040;2024-03-22T04:07:22;98391.38;;;2.97;97.32
84145;BME280;74264;48.988;12.040;2024-03-22T04:09:48;98386.88;;;2.99;97.69
84145;BME280;74264;48.988;12.040;2024-03-22T04:12:14;98381.56;;;3.00;97.61
84145;BME280;74264;48.988;12.040;2024-03-22T04:14:39;98383.88;;;2.92;97.32
84145;BME280;74264;48.988;12.040;2024-03-22T04:17:05;98371.63;;;2.93;97.40
84145;BME280;74264;48.988;12.040;2024-03-22T04:19:31;98369.38;;;2.76;97.49
84145;BME280;74264;48.988;12.040;2024-03-22T04:21:56;98385.72;;;2.67;97.36
84145;BME280;74264;48.988;12.040;2024-03-22T04:24:22;98380.38;;;2.68;96.84
84145;BME280;74264;48.988;12.040;2024-03-22T04:26:47;98374.41;;;2.66;97.34
84145;BME280;74264;48.988;12.040;2024-03-22T04:29:13;98377.22;;;2.76;97.00
84145;BME280;74264;48.988;12.040;2024-03-22T04:31:39;98384.44;;;2.72;96.89
84145;BME280;74264;48.988;12.040;2024-03-22T04:34:04;98386.94;;;2.74;97.09
84145;BME280;74264;48.988;12.040;2024-03-22T04:36:33;98385.47;;;2.70;96.84
84145;BME280;74264;48.988;12.040;2024-03-22T04:38:59;98382.56;;;2.74;97.07
84145;BME280;74264;48.988;12.040;2024-03-22T04:41:24;98386.72;;;2.77;97.06
84145;BME280;74264;48.988;12.040;2024-03-22T04:43:50;98389.25;;;2.78;97.28
84145;BME280;74264;48.988;12.040;2024-03-22T04:46:15;98382.09;;;2.80;96.81
84145;BME280;74264;48.988;12.040;2024-03-22T04:48:41;98384.41;;;2.85;97.16
84145;BME280;74264;48.988;12.040;2024-03-22T04:51:06;98383.38;;;2.87;97.18
84145;BME280;74264;48.988;12.040;2024-03-22T04:53:32;98389.44;;;2.75;97.00
84145;BME280;74264;48.988;12.040;2024-03-22T04:55:58;98396.56;;;2.73;96.72
84145;BME280;74264;48.988;12.040;2024-03-22T04:58:23;98391.03;;;2.78;96.54
84145;BME280;74264;48.988;12.040;2024-03-22T05:00:49;98389.94;;;2.80;96.97
84145;BME280;74264;48.988;12.040;2024-03-22T05:03:16;98384.63;;;2.82;96.93
84145;BME280;74264;48.988;12.040;2024-03-22T05:05:42;98376.88;;;2.80;96.75
84145;BME280;74264;48.988;12.040;2024-03-22T05:08:08;98368.03;;;2.70;96.28
84145;BME280;74264;48.988;12.040;2024-03-22T05:10:35;98381.31;;;2.67;96.04
84145;BME280;74264;48.988;12.040;2024-03-22T05:13:00;98382.97;;;2.68;96.33
84145;BME280;74264;48.988;12.040;2024-03-22T05:15:26;98385.28;;;2.60;96.29
84145;BME280;74264;48.988;12.040;2024-03-22T05:17:52;98386.16;;;2.48;96.38
84145;BME280;74264;48.988;12.040;2024-03-22T05:20:18;98394.31;;;2.44;96.57
84145;BME280;74264;48.988;12.040;2024-03-22T05:22:44;98390.78;;;2.32;96.76
84145;BME280;74264;48.988;12.040;2024-03-22T05:25:10;98385.09;;;2.38;96.97
84145;BME280;74264;48.988;12.040;2024-03-22T05:27:36;98383.78;;;2.45;96.98
84145;BME280;74264;48.988;12.040;2024-03-22T05:30:02;98379.91;;;2.51;96.98
84145;BME280;74264;48.988;12.040;2024-03-22T05:32:31;98371.09;;;2.52;97.05
84145;BME280;74264;48.988;12.040;2024-03-22T05:34:57;98380.41;;;2.56;96.78
84145;BME280;74264;48.988;12.040;2024-03-22T05:37:22;98377.56;;;2.59;96.55
84145;BME280;74264;48.988;12.040;2024-03-22T05:39:48;98366.91;;;2.62;96.52
84145;BME280;74264;48.988;12.040;2024-03-22T05:42:14;98368.34;;;2.66;96.35
84145;BME280;74264;48.988;12.040;2024-03-22T05:44:40;98359.94;;;2.73;96.55
84145;BME280;74264;48.988;12.040;2024-03-22T05:47:06;98352.94;;;2.74;96.29
84145;BME280;74264;48.988;12.040;2024-03-22T05:49:31;98367.78;;;2.73;96.35
84145;BME280;74264;48.988;12.040;2024-03-22T05:51:57;98367.78;;;2.73;96.66
84145;BME280;74264;48.988;12.040;2024-03-22T05:54:22;98367.88;;;2.84;96.59
84145;BME280;74264;48.988;12.040;2024-03-22T05:56:48;98372.28;;;2.84;96.89
84145;BME280;74264;48.988;12.040;2024-03-22T05:59:13;98371.03;;;2.89;96.93
84145;BME280;74264;48.988;12.040;2024-03-22T06:01:39;98372.91;;;2.87;96.18
84145;BME280;74264;48.988;12.040;2024-03-22T06:04:05;98377.72;;;2.81;96.04
84145;BME280;74264;48.988;12.040;2024-03-22T06:06:34;98372.19;;;2.85;95.90
84145;BME280;74264;48.988;12.040;2024-03-22T06:09:00;98378.94;;;2.88;95.87
84145;BME280;74264;48.988;12.040;2024-03-22T06:11:32;98377.25;;;2.99;95.98
84145;BME280;74264;48.988;12.040;2024-03-22T06:13:58;98381.63;;;3.12;96.14
84145;BME280;74264;48.988;12.040;2024-03-22T06:16:23;98367.34;;;3.16;96.62
84145;BME280;74264;48.988;12.040;2024-03-22T06:18:49;98372.97;;;3.22;96.31
84145;BME280;74264;48.988;12.040;2024-03-22T06:21:14;98377.78;;;3.28;96.25
84145;BME280;74264;48.988;12.040;2024-03-22T06:23:40;98384.44;;;3.32;95.12
84145;BME280;74264;48.988;12.040;2024-03-22T06:26:07;98374.75;;;3.45;96.06
84145;BME280;74264;48.988;12.040;2024-03-22T06:28:32;98372.16;;;3.56;96.47
84145;BME280;74264;48.988;12.040;2024-03-22T06:30:58;98375.09;;;3.41;94.96
84145;BME280;74264;48.988;12.040;2024-03-22T06:33:24;98372.97;;;3.46;94.94
84145;BME280;74264;48.988;12.040;2024-03-22T06:35:50;98364.19;;;3.47;95.23
84145;BME280;74264;48.988;12.040;2024-03-22T06:38:15;98374.13;;;3.42;94.77
84145;BME280;74264;48.988;12.040;2024-03-22T06:40:41;98364.19;;;3.47;94.45
84145;BME280;74264;48.988;12.040;2024-03-22T06:43:07;98367.09;;;3.66;94.80
84145;BME280;74264;48.988;12.040;2024-03-22T06:45:32;98360.56;;;3.71;93.50
84145;BME280;74264;48.988;12.040;2024-03-22T06:47:58;98350.56;;;3.76;92.69
84145;BME280;74264;48.988;12.040;2024-03-22T06:50:23;98352.03;;;3.91;92.88
84145;BME280;74264;48.988;12.040;2024-03-22T06:52:54;98352.19;;;4.01;93.66
84145;BME280;74264;48.988;12.040;2024-03-22T06:55:20;98354.09;;;4.10;93.69
84145;BME280;74264;48.988;12.040;2024-03-22T06:57:47;98343.28;;;4.15;92.26
84145;BME280;74264;48.988;12.040;2024-03-22T07:00:13;98343.16;;;4.16;92.02
84145;BME280;74264;48.988;12.040;2024-03-22T07:02:39;98336.59;;;4.33;93.94
84145;BME280;74264;48.988;12.040;2024-03-22T07:05:06;98335.03;;;4.30;93.01
84145;BME280;74264;48.988;12.040;2024-03-22T07:07:32;98337.78;;;4.29;92.46
84145;BME280;74264;48.988;12.040;2024-03-22T07:09:58;98340.28;;;4.41;92.22
84145;BME280;74264;48.988;12.040;2024-03-22T07:12:23;98346.25;;;4.54;92.55
84145;BME280;74264;48.988;12.040;2024-03-22T07:14:49;98340.53;;;4.60;91.17
84145;BME280;74264;48.988;12.040;2024-03-22T07:17:15;98346.09;;;4.67;90.29
84145;BME280;74264;48.988;12.040;2024-03-22T07:19:40;98345.03;;;4.80;90.86
84145;BME280;74264;48.988;12.040;2024-03-22T07:22:06;98342.16;;;4.83;89.30
84145;BME280;74264;48.988;12.040;2024-03-22T07:24:32;98344.28;;;5.00;89.49
84145;BME280;74264;48.988;12.040;2024-03-22T07:26:58;98341.97;;;5.18;89.48
84145;BME280;74264;48.988;12.040;2024-03-22T07:29:23;98338.06;;;5.33;90.16
84145;BME280;74264;48.988;12.040;2024-03-22T07:31:49;98340.03;;;5.52;90.55
84145;BME280;74264;48.988;12.040;2024-03-22T07:34:14;98348.03;;;5.50;89.73
84145;BME280;74264;48.988;12.040;2024-03-22T07:36:40;98337.63;;;5.60;88.87
84145;BME280;74264;48.988;12.040;2024-03-22T07:39:06;98343.59;;;5.82;89.05
84145;BME280;74264;48.988;12.040;2024-03-22T07:41:33;98336.50;;;5.94;89.00
84145;BME280;74264;48.988;12.040;2024-03-22T07:43:59;98336.84;;;6.00;87.93
84145;BME280;74264;48.988;12.040;2024-03-22T07:46:26;98329.25;;;6.07;87.90
84145;BME280;74264;48.988;12.040;2024-03-22T07:48:52;98341.50;;;5.97;89.05
84145;BME280;74264;48.988;12.040;2024-03-22T07:51:18;98334.97;;;5.91;89.45
84145;BME280;74264;48.988;12.040;2024-03-22T07:53:44;98336.00;;;6.00;89.99
84145;BME280;74264;48.988;12.040;2024-03-22T07:56:09;98332.53;;;5.99;89.72
84145;BME280;74264;48.988;12.040;2024-03-22T07:58:35;98336.19;;;6.08;90.33
84145;BME280;74264;48.988;12.040;2024-03-22T08:01:00;98340.97;;;6.24;91.10
84145;BME280;74264;48.988;12.040;2024-03-22T08:03:26;98338.38;;;6.33;89.79
84145;BME280;74264;48.988;12.040;2024-03-22T08:05:52;98331.09;;;6.46;88.43
84145;BME280;74264;48.988;12.040;2024-03-22T08:08:17;98333.88;;;6.45;88.31
84145;BME280;74264;48.988;12.040;2024-03-22T08:10:43;98322.16;;;6.58;88.37
84145;BME280;74264;48.988;12.040;2024-03-22T08:13:08;98311.19;;;6.53;89.48
84145;BME280;74264;48.988;12.040;2024-03-22T08:15:35;98316.91;;;6.58;89.73
84145;BME280;74264;48.988;12.040;2024-03-22T08:18:01;98312.06;;;6.63;88.99
84145;BME280;74264;48.988;12.040;2024-03-22T08:20:26;98307.22;;;6.68;90.38
84145;BME280;74264;48.988;12.040;2024-03-22T08:22:52;98310.56;;;6.70;89.88
84145;BME280;74264;48.988;12.040;2024-03-22T08:25:17;98306.28;;;6.69;90.33
84145;BME280;74264;48.988;12.040;2024-03-22T08:27:46;98301.69;;;6.71;90.97
84145;BME280;74264;48.988;12.040;2024-03-22T08:30:12;98299.91;;;6.72;90.73
84145;BME280;74264;48.988;12.040;2024-03-22T08:32:38;98302.66;;;6.70;91.14
84145;BME280;74264;48.988;12.040;2024-03-22T08:35:04;98295.19;;;6.75;91.63
84145;BME280;74264;48.988;12.040;2024-03-22T08:37:31;98295.38;;;6.83;90.99
84145;BME280;74264;48.988;12.040;2024-03-22T08:39:57;98298.03;;;6.93;90.39
84145;BME280;74264;48.988;12.040;2024-03-22T08:42:22;98301.09;;;7.08;89.41
84145;BME280;74264;48.988;12.040;2024-03-22T08:44:48;98299.59;;;7.34;90.02
84145;BME280;74264;48.988;12.040;2024-03-22T08:47:14;98295.81;;;7.65;90.88
84145;BME280;74264;48.988;12.040;2024-03-22T08:49:39;98290.09;;;7.79;87.24
84145;BME280;74264;48.988;12.040;2024-03-22T08:52:07;98291.19;;;7.95;88.25
84145;BME280;74264;48.988;12.040;2024-03-22T08:54:33;98290.88;;;8.08;86.66
84145;BME280;74264;48.988;12.040;2024-03-22T08:56:59;98283.47;;;8.21;87.33
84145;BME280;74264;48.988;12.040;2024-03-22T08:59:25;98285.72;;;8.16;86.12
84145;BME280;74264;48.988;12.040;2024-03-22T09:01:51;98280.06;;;8.11;85.94
84145;BME280;74264;48.988;12.040;2024-03-22T09:04:17;98283.38;;;8.13;87.09
84145;BME280;74264;48.988;12.040;2024-03-22T09:06:42;98278.66;;;8.17;86.36
84145;BME280;74264;48.988;12.040;2024-03-22T09:09:08;98287.38;;;8.17;86.05
84145;BME280;74264;48.988;12.040;2024-03-22T09:11:34;98269.31;;;8.32;87.95
84145;BME280;74264;48.988;12.040;2024-03-22T09:14:00;98283.78;;;8.55;85.96
84145;BME280;74264;48.988;12.040;2024-03-22T09:16:25;98281.59;;;8.77;85.37
84145;BME280;74264;48.988;12.040;2024-03-22T09:18:51;98272.34;;;9.09;86.55
84145;BME280;74264;48.988;12.040;2024-03-22T09:21:16;98273.72;;;9.30;84.93
84145;BME280;74264;48.988;12.040;2024-03-22T09:23:42;98260.50;;;9.30;84.70
84145;BME280;74264;48.988;12.040;2024-03-22T09:26:07;98265.34;;;9.35;83.94
84145;BME280;74264;48.988;12.040;2024-03-22T09:28:33;98263.00;;;9.49;83.68
84145;BME280;74264;48.988;12.040;2024-03-22T09:31:06;98262.91;;;9.41;82.15
84145;BME280;74264;48.988;12.040;2024-03-22T09:33:35;98259.19;;;9.52;81.99
84145;BME280;74264;48.988;12.040;2024-03-22T09:36:02;98251.34;;;9.85;83.56
84145;BME280;74264;48.988;12.040;2024-03-22T09:38:28;98250.56;;;10.11;81.80
84145;BME280;74264;48.988;12.040;2024-03-22T09:40:54;98239.56;;;10.31;80.39
84145;BME280;74264;48.988;12.040;2024-03-22T09:43:23;98238.53;;;10.58;80.74
84145;BME280;74264;48.988;12.040;2024-03-22T09:45:50;98238.91;;;10.71;80.87
84145;BME280;74264;48.988;12.040;2024-03-22T09:48:19;98234.13;;;10.74;78.57
84145;BME280;74264;48.988;12.040;2024-03-22T09:50:48;98230.16;;;10.86;77.88
84145;BME280;74264;48.988;12.040;2024-03-22T09:53:19;98232.03;;;11.02;77.56
84145;BME280;74264;48.988;12.040;2024-03-22T09:55:46;98242.84;;;11.33;77.96
84145;BME280;74264;48.988;12.040;2024-03-22T09:58:12;98234.56;;;11.52;78.95
84145;BME280;74264;48.988;12.040;2024-03-22T10:00:40;98240.25;;;11.65;77.95
84145;BME280;74264;48.988;12.040;2024-03-22T10:03:06;98232.44;;;11.79;77.76
84145;BME280;74264;48.988;12.040;2024-03-22T10:05:31;98232.91;;;11.75;76.39
84145;BME280;74264;48.988;12.040;2024-03-22T10:07:57;98231.06;;;11.91;75.02
84145;BME280;74264;48.988;12.040;2024-03-22T10:10:23;98224.28;;;11.89;76.27
84145;BME280;74264;48.988;12.040;2024-03-22T10:12:49;98224.59;;;11.94;74.62
84145;BME280;74264;48.988;12.040;2024-03-22T10:15:15;98228.09;;;12.03;75.35
84145;BME280;74264;48.988;12.040;2024-03-22T10:17:42;98221.94;;;12.02;74.96
84145;BME280;74264;48.988;12.040;2024-03-22T10:20:08;98208.50;;;12.04;73.47
84145;BME280;74264;48.988;12.040;2024-03-22T10:23:08;98208.16;;;12.07;74.15
84145;BME280;74264;48.988;12.040;2024-03-22T10:25:34;98210.97;;;12.13;76.69
84145;BME280;74264;48.988;12.040;2024-03-22T10:28:00;98201.81;;;12.16;74.66
84145;BME280;74264;48.988;12.040;2024-03-22T10:30:25;98202.09;;;12.29;76.68
84145;BME280;74264;48.988;12.040;2024-03-22T10:32:52;98194.13;;;12.37;78.55
84145;BME280;74264;48.988;12.040;2024-03-22T10:35:18;98196.75;;;12.45;71.57
84145;BME280;74264;48.988;12.040;2024-03-22T10:37:44;98194.41;;;12.42;74.88
84145;BME280;74264;48.988;12.040;2024-03-22T10:40:10;98184.34;;;12.37;72.85
84145;BME280;74264;48.988;12.040;2024-03-22T10:42:40;98179.03;;;12.37;72.37
84145;BME280;74264;48.988;12.040;2024-03-22T10:45:08;98177.16;;;12.38;71.63
84145;BME280;74264;48.988;12.040;2024-03-22T10:47:34;98178.81;;;12.47;72.54
84145;BME280;74264;48.988;12.040;2024-03-22T10:50:10;98176.78;;;12.49;74.66
84145;BME280;74264;48.988;12.040;2024-03-22T10:55:13;98157.03;;;12.51;74.68
84145;BME280;74264;48.988;12.040;2024-03-22T10:57:41;98160.59;;;12.66;76.98
84145;BME280;74264;48.988;12.040;2024-03-22T11:00:10;98149.16;;;12.35;76.26
84145;BME280;74264;48.988;12.040;2024-03-22T11:02:36;98151.59;;;12.45;78.32
84145;BME280;74264;48.988;12.040;2024-03-22T11:05:06;98135.50;;;12.46;77.12
84145;BME280;74264;48.988;12.040;2024-03-22T11:07:32;98136.91;;;12.57;78.00
84145;BME280;74264;48.988;12.040;2024-03-22T11:10:01;98134.88;;;12.67;77.00
84145;BME280;74264;48.988;12.040;2024-03-22T11:12:30;98127.31;;;12.78;77.59
84145;BME280;74264;48.988;12.040;2024-03-22T11:14:58;98126.66;;;12.76;77.81
84145;BME280;74264;48.988;12.040;2024-03-22T11:17:24;98120.22;;;12.71;78.04
84145;BME280;74264;48.988;12.040;2024-03-22T11:19:51;98114.13;;;12.62;76.96
84145;BME280;74264;48.988;12.040;2024-03-22T11:22:18;98109.91;;;12.45;78.00
84145;BME280;74264;48.988;12.040;2024-03-22T11:24:43;98101.94;;;12.45;76.39
84145;BME280;74264;48.988;12.040;2024-03-22T11:27:11;98101.66;;;12.40;79.10
84145;BME280;74264;48.988;12.040;2024-03-22T11:29:38;98105.00;;;12.34;78.69
84145;BME280;74264;48.988;12.040;2024-03-22T11:32:07;98101.38;;;12.27;78.41
84145;BME280;74264;48.988;12.040;2024-03-22T11:34:35;98098.63;;;12.21;78.20
84145;BME280;74264;48.988;12.040;2024-03-22T11:37:01;98089.31;;;12.25;74.95
84145;BME280;74264;48.988;12.040;2024-03-22T11:39:28;98087.06;;;12.36;75.98
84145;BME280;74264;48.988;12.040;2024-03-22T11:41:53;98085.69;;;12.48;77.29
84145;BME280;74264;48.988;12.040;2024-03-22T11:44:21;98092.22;;;12.60;76.67
84145;BME280;74264;48.988;12.040;2024-03-22T11:46:47;98079.78;;;12.61;74.51
84145;BME280;74264;48.988;12.040;2024-03-22T11:49:13;98075.78;;;12.65;74.26
84145;BME280;74264;48.988;12.040;2024-03-22T11:51:38;98057.09;;;12.73;74.45
84145;BME280;74264;48.988;12.040;2024-03-22T11:54:05;98053.50;;;12.88;75.01
84145;BME280;74264;48.988;12.040;2024-03-22T11:56:34;98047.28;;;13.19;74.38
84145;BME280;74264;48.988;12.040;2024-03-22T11:59:01;98037.66;;;13.61;67.14
84145;BME280;74264;48.988;12.040;2024-03-22T12:01:28;98045.75;;;13.53;65.61
84145;BME280;74264;48.988;12.040;2024-03-22T12:03:54;98036.09;;;13.67;67.75
84145;BME280;74264;48.988;12.040;2024-03-22T12:06:20;98029.00;;;14.03;66.06
84145;BME280;74264;48.988;12.040;2024-03-22T12:08:46;98028.78;;;14.55;64.49
84145;BME280;74264;48.988;12.040;2024-03-22T12:11:12;98023.19;;;14.71;61.74
84145;BME280;74264;48.988;12.040;2024-03-22T12:13:38;98010.94;;;14.55;60.71
84145;BME280;74264;48.988;12.040;2024-03-22T12:16:04;98009.25;;;14.48;60.54
84145;BME280;74264;48.988;12.040;2024-03-22T12:18:30;98003.00;;;14.41;60.95
84145;BME280;74264;48.988;12.040;2024-03-22T12:20:56;98012.16;;;14.53;62.38
84145;BME280;74264;48.988;12.040;2024-03-22T12:23:21;97996.00;;;14.82;59.65
84145;BME280;74264;48.988;12.040;2024-03-22T12:25:48;97998.13;;;14.86;56.98
84145;BME280;74264;48.988;12.040;2024-03-22T12:28:14;97992.00;;;14.93;55.23
84145;BME280;74264;48.988;12.040;2024-03-22T12:30:40;97994.91;;;15.25;56.88
84145;BME280;74264;48.988;12.040;2024-03-22T12:33:05;97980.25;;;15.15;58.31
84145;BME280;74264;48.988;12.040;2024-03-22T12:35:44;97966.91;;;14.87;59.23
84145;BME280;74264;48.988;12.040;2024-03-22T12:38:11;97974.47;;;15.05;56.34
84145;BME280;74264;48.988;12.040;2024-03-22T12:40:39;97970.13;;;15.04;57.61
84145;BME280;74264;48.988;12.040;2024-03-22T12:43:05;97967.47;;;15.04;55.74
84145;BME280;74264;48.988;12.040;2024-03-22T12:45:31;97962.56;;;15.07;58.79
84145;BME280;74264;48.988;12.040;2024-03-22T12:47:58;97960.44;;;14.96;58.68
84145;BME280;74264;48.988;12.040;2024-03-22T12:50:24;97952.09;;;15.06;55.46
84145;BME280;74264;48.988;12.040;2024-03-22T12:52:50;97949.31;;;15.20;55.78
84145;BME280;74264;48.988;12.040;2024-03-22T12:55:17;97940.34;;;15.00;58.92